METAR v bližini

 

LJMB - Maribor Edvarda Rusjana, Slovenia
Oddaljenost od postaje: SV 30,9km
Podatki zajeti: 26/09/2017 21:30
Pretežno oblačno
Pretežno oblačno
 Veter iz smeri VJV
Veter: VJV 2 km/h
Temperatura: 13°C
Rosišče: 11°C
Vlažnost: 88%
Tlak: 1025 hPa
Oblačnost: Pretežno oblačno
Vidljivost: 10 km
Podrobnosti o oblakih: Rahlo oblačno 975 m
Pretežno oblačno 2591 m
2017/09/26 19:30 LJMB 261930Z 11001KT 9999 FEW032 BKN085 13/11 Q1025
LJLJ - Ljubljana Brnik, Slovenia
Oddaljenost od postaje: S 103km
Podatki zajeti: 26/09/2017 21:30
Oblačno
Oblačno
 Veter iz smeri Z
Veter: Z 6 km/h
Temperatura: 12°C
Rosišče: 11°C
Vlažnost: 94%
Tlak: 1024 hPa
Oblačnost: Oblačno
Vidljivost: 10 km
Podrobnosti o oblakih: Delno oblačno 1219 m
Delno oblačno 1829 m
Oblačno 2286 m
2017/09/26 19:30 LJLJ 261930Z 28003KT 9999 SCT040 SCT060 OVC075 12/11 Q1024 NOSIG
 
LJPZ - Portorož, Slovenia
Oddaljenost od postaje: SSZ 224km
Podatki zajeti: 26/09/2017 21:30
Jasno
Jasno
 Veter iz smeri VJV
Veter: VJV 9 km/h
Temperatura: 14°C
Rosišče: 12°C
Vlažnost: 88%
Tlak: 1021 hPa
Stanje: Jasno
Vidljivost: večja od 10 km
2017/09/26 19:30 LJPZ 261930Z 12005KT CAVOK 14/12 Q1021
LJCE - Cerklje, Slovenia
Oddaljenost od postaje: VSV 83,9km
Podatki zajeti: 26/09/2017 21:30
Oblačno
Oblačno
 Veter iz smeri JJZ
Veter: JJZ 7 km/h
Temperatura: 14°C
Rosišče: 14°C
Vlažnost: 100%
Tlak: 1024 hPa
Oblačnost: Oblačno
Vidljivost: 10 km
Podrobnosti o oblakih: Rahlo oblačno 305 m
Oblačno 1067 m
2017/09/26 19:30 LJCE 261930Z 21004KT 9999 FEW010 OVC035 14/14 Q1024 RMK BLU
 
LOWG - Graz, Austria
Oddaljenost od postaje: SSZ 99,6km
Podatki zajeti: 26/09/2017 21:20
Rahlo dežuje, Showers, Pretežno oblačno
Rahlo dežuje, Showers, Pretežno oblačno
 Veter iz smeri spremenljiv
Veter: spremenljiv 4 km/h
Temperatura: 12°C
Rosišče: 11°C
Vlažnost: 94%
Tlak: 1025 hPa
Stanje: Rahlo dežuje, Showers
Oblačnost: Pretežno oblačno
Vidljivost: 6 km
Podrobnosti o oblakih: Rahlo oblačno 213 m
Delno oblačno 1524 m
Pretežno oblačno 2134 m
2017/09/26 19:20 LOWG 261920Z VRB02KT 6000 -SHRA FEW007 SCT050 BKN070 12/11 Q1025 TEMPO 4000 SHRA
LOWK - Klagenfurt, Austria
Oddaljenost od postaje: SZ 121km
Podatki zajeti: 26/09/2017 21:20
Pretežno oblačno
Pretežno oblačno
 Veter iz smeri spremenljiv
Veter: spremenljiv 2 km/h
Temperatura: 12°C
Rosišče: 11°C
Vlažnost: 94%
Tlak: 1026 hPa
Oblačnost: Pretežno oblačno
Vidljivost: 6 km
Podrobnosti o oblakih: Rahlo oblačno 183 m
Pretežno oblačno 549 m
2017/09/26 19:20 LOWK 261920Z AUTO VRB01KT 6000 FEW006 BKN018 12/11 Q1026 TEMPO 4000 -SHRA SCT006 BKN012
 
LDRI - Rijeka, Croatia
Oddaljenost od postaje: SZ 243km
Podatki zajeti: 26/09/2017 21:30
Jasno
Jasno
 Veter iz smeri spremenljiv
Veter: spremenljiv 7 km/h
Temperatura: 18°C
Rosišče: 11°C
Vlažnost: 64%
Tlak: 1021 hPa
Stanje: Jasno
Vidljivost: večja od 10 km
2017/09/26 19:30 LDRI 261930Z VRB04KT CAVOK 18/11 Q1021
LIPQ - Ronchi, Italy
Oddaljenost od postaje: VJV 224km
Podatki zajeti: 26/09/2017 21:20
Jasno
Jasno
 Veter iz smeri S
Veter: S 6 km/h
Temperatura: 16°C
Rosišče: 12°C
Vlažnost: 77%
Tlak: 1022 hPa
Stanje: Jasno
Vidljivost: večja od 10 km
2017/09/26 19:20 LIPQ 261920Z 35003KT 300V080 CAVOK 16/12 Q1022
 
LDZA - Zagreb, Croatia
Oddaljenost od postaje: JJV 143km
Podatki zajeti: 26/09/2017 21:30
Rahlo oblačno
Rahlo oblačno
 Veter iz smeri ZSZ
Veter: ZSZ 9 km/h
Temperatura: 15°C
Rosišče: 14°C
Vlažnost: 94%
Tlak: 1023 hPa
Oblačnost: Rahlo oblačno
Vidljivost: 6 km
Podrobnosti o oblakih: Rahlo oblačno 823 m
2017/09/26 19:30 LDZA 261930Z 29005KT 240V320 6000 FEW027 15/14 Q1023 RERA NOSIG
LIVT - Trieste, Italy
Oddaljenost od postaje: ZSZ 250km
Podatki zajeti: 26/09/2017 20:55
Jasno
Jasno
 Veter iz smeri SSV
Veter: SSV 20 km/h, Sunek vetra: 43 km/h
Temperatura: 18°C
Rosišče: 12°C
Vlažnost: 68%
Tlak: 1020 hPa
Stanje: Jasno
Vidljivost: večja od 10 km
2017/09/26 18:55 LIVT 261855Z 03011G23KT CAVOK 18/12 Q1020 RMK SKC QUK / QUL / VIS MAR 20 KM VIS MIN 9999
 
LIPA - Aviano, Italy
Oddaljenost od postaje: S 310km
Podatki zajeti: 26/09/2017 20:55
Delno oblačno
Delno oblačno
 Veter iz smeri V
Veter: V 6 km/h
Temperatura: 16°C
Rosišče: 11°C
Vlažnost: 72%
Tlak: 1022 hPa
Oblačnost: Delno oblačno
Vidljivost: 10 km
Podrobnosti o oblakih: Delno oblačno 1829 m
2017/09/26 18:55 LIPA 261855Z 08003KT 9999 SCT060 16/11 Q1022 RMK SCT VIS MIN 9999 WIND THR05 02004KT WIND THR23 04005KT A3019 BLU
LDPL - Pula, Croatia
Oddaljenost od postaje: SSV 304km
Podatki zajeti: 26/09/2017 21:30
Jasno
Jasno
 Veter iz smeri VSV
Veter: VSV 15 km/h
Temperatura: 17°C
Rosišče: 12°C
Vlažnost: 73%
Tlak: 1021 hPa
Stanje: Jasno
Vidljivost: večja od 10 km
2017/09/26 19:30 LDPL 261930Z 06008KT CAVOK 17/12 Q1021 NOSIG